Time;durP1;ratioP1;P1;durP2;ratioP2;P2;SDS_P1;SDS_P2;PMS_P1;PMS_P2;Temp;Humidity;BMP_temperature;BMP_pressure;BME280_temperature;BME280_humidity;BME280_pressure;Samples;Min_cycle;Max_cycle;Signal;HPM_P1;HPM_P2
2023/02/11 08:40:02;;;;;;;;;;;;;;;5.36;59.22;99831.91;6069570;23;20010;31
2023/02/11 08:42:27;;;;;;;;;;;;;;;5.33;58.99;99829.38;4927115;29;20297;-63
2023/02/11 08:44:52;;;;;;;;;;;;;;;5.29;59.09;99813.88;4929697;29;19918;-64
2023/02/11 08:47:17;;;;;;;;;;;;;;;5.27;59.59;99820.88;4927019;29;20469;-63
2023/02/11 08:49:43;;;;;;;;;;;;;;;5.19;60.06;99818.41;4929193;29;20334;-63
2023/02/11 08:52:08;;;;;;;;;;;;;;;5.13;60.43;99819.41;4932799;29;19922;-63
2023/02/11 08:54:33;;;;;;;;;;;;;;;5.12;59.94;99824.63;4932558;29;19926;-63
2023/02/11 08:57:00;;;;;;;;;;;;;;;5.22;60.39;99827.00;4925587;29;19953;-64
2023/02/11 08:59:25;;;;;;;;;;;;;;;5.31;60.38;99827.72;4934402;29;20025;-63
2023/02/11 09:01:51;;;;;;;;;;;;;;;5.31;59.93;99833.78;4936066;29;20017;-63
2023/02/11 09:04:16;;;;;;;;;;;;;;;5.30;59.99;99834.69;4933228;29;19942;-63
2023/02/11 09:06:41;;;;;;;;;;;;;;;5.29;60.10;99827.75;4932180;29;19922;-63
2023/02/11 09:09:08;;;;;;;;;;;;;;;5.19;60.22;99834.88;4931112;29;20001;-64
2023/02/11 09:11:34;;;;;;;;;;;;;;;5.28;60.26;99828.63;4931990;29;19929;-63
2023/02/11 09:13:59;;;;;;;;;;;;;;;5.46;62.18;99825.63;4941316;29;19931;-63
2023/02/11 09:16:25;;;;;;;;;;;;;;;6.10;60.29;99823.31;4936260;29;20306;-63
2023/02/11 09:18:50;;;;;;;;;;;;;;;6.41;58.50;99826.00;4916820;29;19919;-64
2023/02/11 09:21:16;;;;;;;;;;;;;;;6.44;57.52;99811.19;4934543;29;19926;-63
2023/02/11 09:23:43;;;;;;;;;;;;;;;6.44;57.20;99803.38;4933860;29;20394;-63
2023/02/11 09:26:09;;;;;;;;;;;;;;;6.27;57.72;99802.06;4936202;29;19922;-63
2023/02/11 09:28:34;;;;;;;;;;;;;;;6.15;58.03;99802.34;4934633;29;19923;-63
2023/02/11 09:31:06;;;;;;;;;;;;;;;5.91;59.11;99794.22;4925518;29;19981;-63
2023/02/11 09:33:32;;;;;;;;;;;;;;;5.83;59.54;99806.56;4930248;29;19925;-63
2023/02/11 09:35:59;;;;;;;;;;;;;;;5.78;59.97;99804.97;4934895;29;19915;-62
2023/02/11 09:38:24;;;;;;;;;;;;;;;5.83;59.94;99806.56;4937692;29;20495;-62
2023/02/11 09:40:49;;;;;;;;;;;;;;;5.78;60.10;99818.88;4933201;29;19918;-64
2023/02/11 09:43:16;;;;;;;;;;;;;;;5.90;59.94;99831.56;4928690;29;19926;-62
2023/02/11 09:45:41;;;;;;;;;;;;;;;5.98;60.11;99821.00;4936074;29;19919;-63
2023/02/11 09:48:16;;;;;;;;;;;;;;;6.14;59.83;99826.69;4941393;29;19926;-63
2023/02/11 09:50:49;;;;;;;;;;;;;;;6.26;59.28;99822.91;4935429;29;19929;-63
2023/02/11 09:53:19;;;;;;;;;;;;;;;6.86;65.40;99820.44;4928552;29;19953;-63
2023/02/11 09:55:45;;;;;;;;;;;;;;;7.10;59.28;99818.06;4932189;29;20013;-63
2023/02/11 09:58:15;;;;;;;;;;;;;;;7.02;57.34;99812.19;4939547;29;20005;-63
2023/02/11 10:01:01;;;;;;;;;;;;;;;6.87;57.63;99814.34;4932786;29;19922;-64
2023/02/11 10:03:43;;;;;;;;;;;;;;;6.77;57.65;99823.31;4916634;29;19918;-64
2023/02/11 10:06:31;;;;;;;;;;;;;;;6.78;58.11;99827.66;4933444;29;19920;-64
2023/02/11 10:08:56;;;;;;;;;;;;;;;6.75;57.71;99821.66;4926319;29;19979;-64
2023/02/11 10:11:34;;;;;;;;;;;;;;;6.89;58.50;99828.19;4935150;29;19927;-64
2023/02/11 10:14:14;;;;;;;;;;;;;;;7.07;57.94;99832.03;4930087;29;19942;-64
2023/02/11 10:16:42;;;;;;;;;;;;;;;7.09;57.49;99834.63;4932354;29;19918;-64
2023/02/11 10:19:18;;;;;;;;;;;;;;;7.16;58.01;99843.09;4932454;29;19919;-64
2023/02/11 10:21:52;;;;;;;;;;;;;;;7.26;58.02;99842.81;4937248;29;19922;-64
2023/02/11 10:24:17;;;;;;;;;;;;;;;7.40;56.92;99836.31;4931937;29;19919;-64
2023/02/11 10:26:43;;;;;;;;;;;;;;;7.36;57.56;99839.03;4925176;29;19925;-64
2023/02/11 10:29:26;;;;;;;;;;;;;;;7.34;58.02;99842.59;4925068;29;20275;-64
2023/02/11 10:31:52;;;;;;;;;;;;;;;7.40;57.61;99844.16;4932892;29;19974;-64
2023/02/11 10:34:17;;;;;;;;;;;;;;;7.64;56.59;99843.44;4919952;29;19946;-64
2023/02/11 10:36:42;;;;;;;;;;;;;;;7.78;56.52;99841.25;4922226;29;20025;-64
2023/02/11 10:39:11;;;;;;;;;;;;;;;7.85;56.19;99834.94;4927835;29;19926;-64
2023/02/11 10:41:37;;;;;;;;;;;;;;;7.88;56.37;99835.72;4934155;29;19926;-65
2023/02/11 10:44:02;;;;;;;;;;;;;;;7.97;56.12;99828.44;4925484;29;20044;-64
2023/02/11 10:46:28;;;;;;;;;;;;;;;8.04;56.23;99821.25;4929025;29;19938;-65
2023/02/11 10:48:54;;;;;;;;;;;;;;;8.04;55.49;99821.25;4932765;29;20009;-65
2023/02/11 10:51:19;;;;;;;;;;;;;;;7.85;55.61;99823.63;4923176;29;20019;-64
2023/02/11 10:53:45;;;;;;;;;;;;;;;7.74;56.15;99831.81;4916421;29;20009;-64
2023/02/11 10:56:11;;;;;;;;;;;;;;;7.83;56.06;99823.66;4937191;29;19919;-64
2023/02/11 10:58:39;;;;;;;;;;;;;;;7.75;56.86;99830.88;4925628;29;19915;-64
2023/02/11 11:01:05;;;;;;;;;;;;;;;7.81;56.73;99828.09;4930395;29;19926;-64
2023/02/11 11:03:37;;;;;;;;;;;;;;;7.93;56.63;99818.16;4930690;29;19919;-66
2023/02/11 11:06:04;;;;;;;;;;;;;;;7.98;56.57;99821.44;4917750;29;20410;-64
2023/02/11 11:08:36;;;;;;;;;;;;;;;8.13;56.72;99813.13;4933252;29;20375;-65
2023/02/11 11:11:03;;;;;;;;;;;;;;;8.27;55.82;99818.75;4933957;29;20381;-65
2023/02/11 11:13:35;;;;;;;;;;;;;;;8.35;55.88;99818.47;4937699;29;19918;-63
2023/02/11 11:16:14;;;;;;;;;;;;;;;8.33;55.71;99829.00;4936727;29;19952;-64
2023/02/11 11:18:39;;;;;;;;;;;;;;;8.15;55.85;99826.97;4932359;29;20019;-62
2023/02/11 11:21:06;;;;;;;;;;;;;;;8.13;56.07;99828.81;4935086;29;20050;-63
2023/02/11 11:23:31;;;;;;;;;;;;;;;8.07;56.16;99808.94;4944909;29;20375;-62
2023/02/11 11:26:03;;;;;;;;;;;;;;;7.79;57.88;99815.97;4928718;29;19935;-62
2023/02/11 11:28:28;;;;;;;;;;;;;;;7.83;57.61;99813.22;4937121;29;19925;-63
2023/02/11 11:30:54;;;;;;;;;;;;;;;7.90;57.30;99818.25;4939122;29;19923;-62
2023/02/11 11:33:29;;;;;;;;;;;;;;;7.91;57.84;99812.09;4936716;29;19919;-62
2023/02/11 11:35:55;;;;;;;;;;;;;;;7.73;58.16;99811.78;4938039;29;19966;-62
2023/02/11 11:38:20;;;;;;;;;;;;;;;7.65;58.50;99813.78;4948421;29;19918;-62
2023/02/11 11:40:46;;;;;;;;;;;;;;;7.45;58.49;99821.38;4933982;29;20181;-62
2023/02/11 11:43:11;;;;;;;;;;;;;;;7.43;61.39;99824.03;4930451;29;20013;-63
2023/02/11 11:45:36;;;;;;;;;;;;;;;7.88;60.86;99814.81;4936248;29;20022;-62
2023/02/11 11:48:04;;;;;;;;;;;;;;;8.62;59.20;99814.09;4928931;29;20295;-63
2023/02/11 11:50:29;;;;;;;;;;;;;;;8.70;55.23;99814.69;4936412;29;19929;-62
2023/02/11 11:52:59;;;;;;;;;;;;;;;8.31;55.77;99812.50;4933302;29;19919;-62
2023/02/11 11:55:25;;;;;;;;;;;;;;;8.69;58.74;99810.38;4933997;29;19919;-62
2023/02/11 11:57:51;;;;;;;;;;;;;;;8.97;54.80;99810.22;4924494;29;19923;-63
2023/02/11 12:00:20;;;;;;;;;;;;;;;8.75;54.92;99804.91;4935396;29;19919;-64
2023/02/11 12:03:04;;;;;;;;;;;;;;;8.56;55.71;99812.53;4935109;29;19968;-62
2023/02/11 12:05:44;;;;;;;;;;;;;;;8.22;56.64;99807.56;4930582;29;19919;-62
2023/02/11 12:08:16;;;;;;;;;;;;;;;7.97;56.89;99815.38;4936730;29;20434;-62
2023/02/11 12:10:41;;;;;;;;;;;;;;;7.87;57.22;99813.13;4933916;29;20394;-62
2023/02/11 12:13:19;;;;;;;;;;;;;;;7.58;57.75;99804.44;4930940;29;20014;-62
2023/02/11 12:15:53;;;;;;;;;;;;;;;7.38;58.59;99805.03;4922360;29;20443;-62
2023/02/11 12:18:32;;;;;;;;;;;;;;;7.35;59.09;99800.75;4934430;29;20354;-62
2023/02/11 12:21:15;;;;;;;;;;;;;;;7.37;59.07;99803.34;4916318;29;19918;-62
2023/02/11 12:23:43;;;;;;;;;;;;;;;7.38;58.81;99805.03;4930627;29;19926;-61
2023/02/11 12:26:32;;;;;;;;;;;;;;;7.26;59.25;99808.88;4932393;29;19969;-62
2023/02/11 12:29:02;;;;;;;;;;;;;;;7.22;59.54;99803.78;4927393;29;19946;-61
2023/02/11 12:31:27;;;;;;;;;;;;;;;7.32;58.81;99811.28;4942770;29;19946;-62
2023/02/11 12:33:58;;;;;;;;;;;;;;;7.35;58.53;99815.56;4934123;29;20631;-62
2023/02/11 12:36:23;;;;;;;;;;;;;;;7.33;58.56;99820.84;4931426;29;20022;-62
2023/02/11 12:38:52;;;;;;;;;;;;;;;7.28;59.10;99814.91;4935088;29;20025;-62
2023/02/11 12:43:14;;;;;;;;;;;;;;;7.36;58.48;99817.28;4929962;29;19919;-62
2023/02/11 12:44:10;;;;;;;;;;;;;;;7.27;59.15;99807.13;4945712;29;19993;-62
2023/02/11 12:46:42;;;;;;;;;;;;;;;7.31;59.03;99804.38;4939198;29;19922;-61
2023/02/11 12:49:13;;;;;;;;;;;;;;;7.40;58.46;99807.59;4931994;29;19919;-61
2023/02/11 12:51:44;;;;;;;;;;;;;;;7.49;58.75;99802.97;4926258;29;20318;-62
2023/02/11 12:54:19;;;;;;;;;;;;;;;7.56;57.77;99798.41;4920041;29;19919;-62
2023/02/11 12:56:52;;;;;;;;;;;;;;;7.48;57.67;99789.97;4934461;29;19926;-62
2023/02/11 12:59:23;;;;;;;;;;;;;;;8.19;58.99;99784.19;4936769;29;19926;-62
2023/02/11 13:01:48;;;;;;;;;;;;;;;8.23;55.46;99784.94;4935743;29;19950;-62
2023/02/11 13:04:46;;;;;;;;;;;;;;;7.93;55.56;99797.25;4933040;29;19954;-62
2023/02/11 13:07:13;;;;;;;;;;;;;;;7.83;55.22;99789.69;4878306;29;19998;-62
2023/02/11 13:09:41;;;;;;;;;;;;;;;7.52;56.03;99775.91;4879782;29;20062;-62
2023/02/11 13:14:50;;;;;;;;;;;;;;;7.36;56.41;99781.63;4870197;29;19926;-61
2023/02/11 13:17:21;;;;;;;;;;;;;;;7.27;56.87;99761.00;4875871;29;19927;-62
2023/02/11 13:19:50;;;;;;;;;;;;;;;7.37;56.35;99766.81;4876679;29;19947;-61
2023/02/11 13:22:18;;;;;;;;;;;;;;;7.38;56.77;99769.34;4866935;29;19990;-62
2023/02/11 13:24:45;;;;;;;;;;;;;;;7.34;56.63;99772.13;4874756;29;20022;-62
2023/02/11 13:27:29;;;;;;;;;;;;;;;7.37;56.84;99767.66;4882539;29;19920;-61
2023/02/11 13:29:55;;;;;;;;;;;;;;;7.43;56.53;99760.50;4892962;29;19915;-62
2023/02/11 13:32:20;;;;;;;;;;;;;;;7.50;56.45;99762.03;4888103;29;20292;-61
2023/02/11 13:34:45;;;;;;;;;;;;;;;7.51;56.92;99764.63;4877949;29;20010;-61
2023/02/11 13:37:29;;;;;;;;;;;;;;;7.52;57.07;99762.84;4879480;29;19953;-62
2023/02/11 13:40:15;;;;;;;;;;;;;;;7.48;56.87;99761.25;4877664;29;19916;-61
2023/02/11 13:42:59;;;;;;;;;;;;;;;7.52;56.55;99760.25;4895608;29;19926;-62
2023/02/11 13:45:27;;;;;;;;;;;;;;;7.39;56.59;99770.19;4929898;29;20311;-61
2023/02/11 13:47:56;;;;;;;;;;;;;;;7.36;56.80;99765.94;4933958;29;19946;-62
2023/02/11 13:50:22;;;;;;;;;;;;;;;7.21;57.12;99771.63;4933141;29;20046;-62
2023/02/11 13:52:47;;;;;;;;;;;;;;;7.11;58.04;99780.63;4937337;29;20371;-61
2023/02/11 13:55:12;;;;;;;;;;;;;;;6.97;58.16;99775.81;4924812;29;19923;-62
2023/02/11 13:57:38;;;;;;;;;;;;;;;6.92;58.76;99787.25;4937915;29;19923;-61
2023/02/11 14:00:22;;;;;;;;;;;;;;;6.82;58.87;99784.09;4949489;29;19921;-62
2023/02/11 14:11:26;;;;;;;;;;;;;;;6.75;61.10;99800.81;4938522;29;20015;-64
2023/02/11 14:13:51;;;;;;;;;;;;;;;6.73;62.00;99790.38;4933116;29;19961;-64
2023/02/11 14:16:23;;;;;;;;;;;;;;;6.59;62.99;99782.09;4928779;29;19923;-63
2023/02/11 14:18:51;;;;;;;;;;;;;;;6.44;64.72;99787.75;4934466;29;19974;-63
2023/02/11 14:21:26;;;;;;;;;;;;;;;6.40;64.83;99785.22;4934201;29;20275;-63
2023/02/11 14:23:52;;;;;;;;;;;;;;;6.46;64.57;99786.78;4933148;29;19929;-64
2023/02/11 14:26:20;;;;;;;;;;;;;;;6.50;64.06;99782.34;4938417;29;19918;-64
2023/02/11 14:29:00;;;;;;;;;;;;;;;6.53;64.16;99780.50;4927277;29;19930;-63
2023/02/11 14:31:27;;;;;;;;;;;;;;;6.50;64.04;99769.31;4940604;29;19930;-65
2023/02/11 14:33:52;;;;;;;;;;;;;;;6.54;64.33;99773.56;4937549;29;19922;-64
2023/02/11 14:36:26;;;;;;;;;;;;;;;6.65;63.51;99771.50;4932006;29;20054;-63
2023/02/11 14:38:57;;;;;;;;;;;;;;;6.73;63.01;99768.69;4933229;29;19923;-63
2023/02/11 14:41:26;;;;;;;;;;;;;;;6.76;63.23;99774.66;4916487;29;19976;-63
2023/02/11 14:43:52;;;;;;;;;;;;;;;6.80;63.38;99768.47;4930791;29;19923;-63
2023/02/11 14:46:17;;;;;;;;;;;;;;;6.88;63.14;99773.44;4922639;29;20440;-62
2023/02/11 14:48:46;;;;;;;;;;;;;;;7.04;62.53;99758.22;4932519;29;19923;-64
2023/02/11 14:51:12;;;;;;;;;;;;;;;7.05;62.66;99760.78;4926792;29;20009;-64
2023/02/11 14:53:40;;;;;;;;;;;;;;;6.90;62.77;99759.47;4931853;29;19923;-65
2023/02/11 14:56:14;;;;;;;;;;;;;;;6.92;62.63;99759.44;4933230;29;20044;-64
2023/02/11 14:58:39;;;;;;;;;;;;;;;6.92;63.17;99758.56;4936430;29;20005;-64
2023/02/11 15:01:05;;;;;;;;;;;;;;;6.85;62.90;99758.75;4926271;29;19954;-61
2023/02/11 15:03:31;;;;;;;;;;;;;;;6.74;63.30;99760.81;4927916;29;19926;-62
2023/02/11 15:05:58;;;;;;;;;;;;;;;6.74;63.26;99760.81;4934656;29;19947;-62
2023/02/11 15:08:23;;;;;;;;;;;;;;;6.66;63.76;99773.22;4938433;29;19922;-60
2023/02/11 15:10:48;;;;;;;;;;;;;;;6.60;64.37;99774.22;4926926;29;19986;-62
2023/02/11 15:13:15;;;;;;;;;;;;;;;6.49;64.58;99776.28;4933020;29;21670;-62
2023/02/11 15:15:40;;;;;;;;;;;;;;;6.46;64.96;99778.09;4936943;29;19942;-61
2023/02/11 15:18:05;;;;;;;;;;;;;;;6.45;65.03;99786.84;4928428;29;20339;-61
2023/02/11 15:20:31;;;;;;;;;;;;;;;6.34;65.25;99787.97;4933676;29;19938;-62
2023/02/11 15:22:57;;;;;;;;;;;;;;;6.36;65.84;99785.31;4928775;29;19919;-61
2023/02/11 15:25:23;;;;;;;;;;;;;;;6.35;65.97;99784.47;4937884;29;20278;-61
2023/02/11 15:27:49;;;;;;;;;;;;;;;6.30;66.24;99783.75;4928314;29;19919;-62
2023/02/11 15:30:20;;;;;;;;;;;;;;;6.26;66.37;99779.47;4927521;29;19939;-62
2023/02/11 15:32:45;;;;;;;;;;;;;;;6.32;66.44;99774.13;4930375;29;20409;-61
2023/02/11 15:35:12;;;;;;;;;;;;;;;6.32;65.68;99778.47;4931576;29;20007;-62
2023/02/11 15:37:37;;;;;;;;;;;;;;;6.29;66.00;99782.00;4932273;29;19922;-61
2023/02/11 15:40:17;;;;;;;;;;;;;;;6.27;65.83;99790.78;4924041;29;20351;-62
2023/02/11 15:42:56;;;;;;;;;;;;;;;6.81;73.98;99796.28;4926678;29;19927;-62
2023/02/11 15:45:27;;;;;;;;;;;;;;;7.30;64.27;99794.84;4937503;29;19919;-62
2023/02/11 15:47:53;;;;;;;;;;;;;;;7.27;62.75;99789.72;4931207;29;20327;-62
2023/02/11 15:50:31;;;;;;;;;;;;;;;7.10;63.38;99792.81;4931571;29;20429;-62
2023/02/11 15:52:57;;;;;;;;;;;;;;;6.81;63.98;99792.78;4935535;28;19990;-61
2023/02/11 15:55:23;;;;;;;;;;;;;;;6.60;64.45;99794.22;4936561;29;19946;-62
2023/02/11 15:57:52;;;;;;;;;;;;;;;8.92;60.93;99791.22;4917745;29;19950;-62
2023/02/11 16:00:18;;;;;;;;;;;;;;;8.43;58.29;99794.72;4938823;29;19973;-62
2023/02/11 16:02:44;;;;;;;;;;;;;;;8.00;59.65;99793.53;4931905;29;20371;-62
2023/02/11 16:05:23;;;;;;;;;;;;;;;7.54;61.04;99806.31;4937262;29;19915;-62
2023/02/11 16:07:49;;;;;;;;;;;;;;;7.18;62.00;99803.03;4934055;29;19937;-62
2023/02/11 16:10:21;;;;;;;;;;;;;;;6.88;62.98;99805.63;4931698;29;19926;-62
2023/02/11 16:12:50;;;;;;;;;;;;;;;6.66;63.53;99799.28;4925802;29;19930;-63
2023/02/11 16:15:48;;;;;;;;;;;;;;;6.45;64.34;99811.13;4936820;29;19914;-62
2023/02/11 16:18:13;;;;;;;;;;;;;;;6.27;64.90;99816.84;4853413;29;20296;-62
2023/02/11 16:20:38;;;;;;;;;;;;;;;6.13;65.37;99820.66;4858449;29;19924;-63
2023/02/11 16:23:04;;;;;;;;;;;;;;;6.04;66.04;99814.78;4843392;29;20007;-62
2023/02/11 16:25:29;;;;;;;;;;;;;;;6.04;65.86;99815.66;4851304;29;20023;-62
2023/02/11 16:27:54;;;;;;;;;;;;;;;5.90;66.64;99826.38;4839287;29;19927;-62
2023/02/11 16:30:27;;;;;;;;;;;;;;;5.82;66.61;99815.28;4857834;29;20067;-62
2023/02/11 16:32:52;;;;;;;;;;;;;;;5.74;66.89;99829.38;4840465;29;19927;-62
2023/02/11 16:35:18;;;;;;;;;;;;;;;5.67;67.35;99836.44;4838719;29;19917;-63
2023/02/11 16:37:43;;;;;;;;;;;;;;;5.72;67.29;99834.63;4862643;29;20019;-62
2023/02/11 16:40:08;;;;;;;;;;;;;;;5.68;67.23;99835.59;4856457;29;20138;-62
2023/02/11 16:42:34;;;;;;;;;;;;;;;5.67;67.27;99831.25;4834407;29;20011;-62
2023/02/11 16:44:59;;;;;;;;;;;;;;;5.70;67.26;99836.38;4850121;29;19939;-63
2023/02/11 16:47:25;;;;;;;;;;;;;;;5.67;67.24;99845.13;4846179;29;20000;-63
2023/02/11 16:49:50;;;;;;;;;;;;;;;5.71;67.51;99843.28;4860509;29;19968;-63
2023/02/11 16:52:15;;;;;;;;;;;;;;;5.71;67.34;99848.50;4840330;29;19979;-62
2023/02/11 16:54:41;;;;;;;;;;;;;;;5.72;67.21;99845.03;4913686;29;19958;-62
2023/02/11 16:57:12;;;;;;;;;;;;;;;5.71;67.28;99848.50;4934419;29;19970;-62
2023/02/11 16:59:37;;;;;;;;;;;;;;;5.69;67.24;99850.31;4933479;29;20332;-62
2023/02/11 17:02:03;;;;;;;;;;;;;;;5.66;67.81;99855.56;4934663;29;19965;-63
2023/02/11 17:04:29;;;;;;;;;;;;;;;5.67;67.55;99849.47;4933891;29;19946;-62
2023/02/11 17:06:54;;;;;;;;;;;;;;;5.61;67.63;99855.69;4933683;29;20414;-62
2023/02/11 17:09:20;;;;;;;;;;;;;;;5.62;68.01;99856.53;4931300;29;19923;-62
2023/02/11 17:11:45;;;;;;;;;;;;;;;5.63;67.68;99855.63;4933201;29;19923;-62
2023/02/11 17:14:10;;;;;;;;;;;;;;;6.56;75.78;99852.56;4932767;29;19925;-62
2023/02/11 17:16:36;;;;;;;;;;;;;;;6.67;66.31;99858.34;4933796;29;20350;-62
2023/02/11 17:19:01;;;;;;;;;;;;;;;6.56;64.77;99850.81;4928803;29;20294;-62
2023/02/11 17:21:26;;;;;;;;;;;;;;;6.42;64.30;99853.78;4932687;29;20334;-63
2023/02/11 17:23:52;;;;;;;;;;;;;;;6.23;65.27;99864.69;4932056;29;19918;-63
2023/02/11 17:26:17;;;;;;;;;;;;;;;6.00;66.01;99860.06;4934082;29;19926;-63
2023/02/11 17:28:42;;;;;;;;;;;;;;;5.93;66.36;99864.53;4933316;29;19919;-63
2023/02/11 17:31:08;;;;;;;;;;;;;;;5.84;66.42;99862.97;4931348;29;19929;-63
2023/02/11 17:33:33;;;;;;;;;;;;;;;5.79;66.97;99862.22;4929161;29;19922;-63
2023/02/11 17:35:58;;;;;;;;;;;;;;;5.76;67.68;99859.69;4950154;29;20345;-62
2023/02/11 17:38:23;;;;;;;;;;;;;;;5.75;67.42;99868.41;4933618;29;19930;-63
2023/02/11 17:40:55;;;;;;;;;;;;;;;5.69;67.70;99865.94;4931121;29;19919;-63
2023/02/11 17:43:20;;;;;;;;;;;;;;;5.65;67.68;99856.47;4925546;29;19945;-63
2023/02/11 17:45:46;;;;;;;;;;;;;;;5.62;68.05;99861.75;4935324;29;19914;-63
2023/02/11 17:48:11;;;;;;;;;;;;;;;5.59;67.67;99864.41;4932306;29;20054;-62
2023/02/11 17:50:36;;;;;;;;;;;;;;;5.55;67.84;99867.97;4931926;29;20002;-63
2023/02/11 17:53:01;;;;;;;;;;;;;;;5.41;67.93;99871.72;4932819;29;20010;-63
2023/02/11 17:55:26;;;;;;;;;;;;;;;5.36;68.63;99877.91;4934580;29;19958;-62
2023/02/11 17:57:52;;;;;;;;;;;;;;;5.35;68.38;99871.00;4931998;29;19961;-61
2023/02/11 18:00:18;;;;;;;;;;;;;;;5.31;68.67;99862.41;4934804;29;19958;-62
2023/02/11 18:02:43;;;;;;;;;;;;;;;5.26;68.97;99860.78;4930144;29;20009;-62
2023/02/11 18:05:08;;;;;;;;;;;;;;;5.21;69.36;99869.53;4932209;29;20382;-62
2023/02/11 18:07:34;;;;;;;;;;;;;;;5.21;69.08;99869.53;4934145;29;20438;-62
2023/02/11 18:09:59;;;;;;;;;;;;;;;5.14;68.85;99867.09;4933426;29;20506;-62
2023/02/11 18:12:25;;;;;;;;;;;;;;;5.14;69.56;99862.75;4931400;29;19930;-62
2023/02/11 18:14:52;;;;;;;;;;;;;;;5.10;69.29;99868.03;4933054;29;19923;-62
2023/02/11 18:17:17;;;;;;;;;;;;;;;4.97;69.55;99873.47;4936944;28;19998;-62
2023/02/11 18:19:43;;;;;;;;;;;;;;;5.00;69.98;99865.63;4930004;29;20078;-62
2023/02/11 18:22:08;;;;;;;;;;;;;;;5.00;69.90;99870.81;4932333;29;19941;-62
2023/02/11 18:24:33;;;;;;;;;;;;;;;4.99;69.79;99873.47;4932343;29;20017;-62
2023/02/11 18:26:59;;;;;;;;;;;;;;;4.94;70.08;99873.53;4932119;29;19938;-62
2023/02/11 18:29:24;;;;;;;;;;;;;;;4.94;70.30;99876.13;4931735;29;19919;-62
2023/02/11 18:31:49;;;;;;;;;;;;;;;4.99;70.39;99873.47;4931082;29;20443;-62
2023/02/11 18:34:15;;;;;;;;;;;;;;;4.96;70.42;99873.50;4927573;29;19978;-62
2023/02/11 18:36:41;;;;;;;;;;;;;;;4.92;70.33;99874.44;4930477;29;20393;-61
2023/02/11 18:39:06;;;;;;;;;;;;;;;4.91;71.05;99875.34;4928519;29;19950;-62
2023/02/11 18:41:31;;;;;;;;;;;;;;;4.92;70.47;99871.84;4931699;29;20294;-62
2023/02/11 18:43:57;;;;;;;;;;;;;;;4.91;70.72;99886.59;4933136;29;19956;-62
2023/02/11 18:46:22;;;;;;;;;;;;;;;4.95;70.74;99885.63;4928626;29;19922;-62
2023/02/11 18:48:48;;;;;;;;;;;;;;;5.00;70.89;99885.56;4931601;29;19958;-62
2023/02/11 18:51:14;;;;;;;;;;;;;;;5.05;70.49;99891.53;4929938;29;19927;-61
2023/02/11 18:53:39;;;;;;;;;;;;;;;5.08;70.46;99888.00;4939157;29;20264;-63
2023/02/11 18:56:06;;;;;;;;;;;;;;;5.04;70.26;99895.03;4929363;29;19926;-62
2023/02/11 18:58:31;;;;;;;;;;;;;;;5.08;70.17;99888.00;4933291;29;19962;-61
2023/02/11 19:00:56;;;;;;;;;;;;;;;5.02;70.59;99890.72;4930522;29;19919;-61
2023/02/11 19:03:22;;;;;;;;;;;;;;;5.03;70.27;99892.47;4932900;29;19914;-62
2023/02/11 19:05:47;;;;;;;;;;;;;;;4.99;70.66;99884.72;4928547;29;19919;-61
2023/02/11 19:08:13;;;;;;;;;;;;;;;4.99;70.54;99883.88;4927767;29;19926;-62
2023/02/11 19:10:41;;;;;;;;;;;;;;;5.02;70.83;99888.13;4932670;29;19919;-62
2023/02/11 19:13:06;;;;;;;;;;;;;;;4.99;70.51;99886.47;4927254;29;19919;-61
2023/02/11 19:15:32;;;;;;;;;;;;;;;4.99;70.47;99892.53;4932008;29;19961;-62
2023/02/11 19:17:57;;;;;;;;;;;;;;;4.98;70.70;99901.19;4931237;29;19918;-62
2023/02/11 19:20:22;;;;;;;;;;;;;;;4.99;70.91;99900.31;4928908;29;19926;-62
2023/02/11 19:22:47;;;;;;;;;;;;;;;4.95;71.17;99902.97;4930211;29;19922;-61
2023/02/11 19:25:13;;;;;;;;;;;;;;;4.97;70.93;99902.06;4932029;29;19920;-62
2023/02/11 19:27:40;;;;;;;;;;;;;;;5.00;70.88;99907.22;4922314;29;19918;-62
2023/02/11 19:30:06;;;;;;;;;;;;;;;5.23;75.09;99904.19;4935962;29;19923;-62
2023/02/11 19:32:31;;;;;;;;;;;;;;;5.23;70.79;99905.94;4922850;29;19930;-61
2023/02/11 19:34:56;;;;;;;;;;;;;;;5.21;70.25;99897.28;4935229;29;19915;-61
2023/02/11 19:37:21;;;;;;;;;;;;;;;5.20;70.24;99912.06;4933650;29;20542;-61
2023/02/11 19:39:47;;;;;;;;;;;;;;;5.22;70.75;99912.00;4932942;29;19919;-62
2023/02/11 19:42:12;;;;;;;;;;;;;;;5.29;71.04;99915.34;4921734;29;19926;-61
2023/02/11 19:44:37;;;;;;;;;;;;;;;5.31;70.59;99916.19;4932590;29;20403;-62
2023/02/11 19:47:02;;;;;;;;;;;;;;;5.32;70.55;99913.53;4932393;29;19919;-61
2023/02/11 19:49:28;;;;;;;;;;;;;;;5.36;70.50;99915.19;4935062;29;19922;-60
2023/02/11 19:51:54;;;;;;;;;;;;;;;5.38;70.52;99923.84;4942926;29;20508;-61
2023/02/11 19:54:19;;;;;;;;;;;;;;;5.40;70.51;99924.69;4933121;29;21075;-62
2023/02/11 19:56:46;;;;;;;;;;;;;;;5.43;70.13;99934.13;4936704;29;20388;-61
2023/02/11 19:59:12;;;;;;;;;;;;;;;5.43;70.25;99927.19;4933207;29;19919;-61
2023/02/11 20:01:37;;;;;;;;;;;;;;;5.39;69.51;99929.88;4939162;29;20331;-60
2023/02/11 20:04:02;;;;;;;;;;;;;;;5.42;70.30;99935.03;4931762;29;20342;-61
2023/02/11 20:06:28;;;;;;;;;;;;;;;5.42;70.49;99941.09;4944906;29;19934;-61
2023/02/11 20:08:54;;;;;;;;;;;;;;;5.41;69.76;99938.53;4934775;29;19918;-61
2023/02/11 20:11:19;;;;;;;;;;;;;;;5.38;69.51;99943.81;4935455;29;19927;-61
2023/02/11 20:13:45;;;;;;;;;;;;;;;5.25;70.09;99943.16;4932881;29;19918;-61
2023/02/11 20:16:15;;;;;;;;;;;;;;;5.18;70.59;99936.38;4935230;29;19927;-61
2023/02/11 20:18:40;;;;;;;;;;;;;;;5.21;71.17;99937.16;4932638;29;20005;-61
2023/02/11 20:21:09;;;;;;;;;;;;;;;5.26;71.43;99934.47;4934578;29;19923;-61
2023/02/11 20:23:35;;;;;;;;;;;;;;;5.19;70.55;99943.28;4938783;29;20459;-61
2023/02/11 20:26:04;;;;;;;;;;;;;;;5.19;70.58;99945.88;4934601;29;19923;-59
2023/02/11 20:28:29;;;;;;;;;;;;;;;5.19;71.49;99944.13;4932107;29;20331;-61
2023/02/11 20:30:55;;;;;;;;;;;;;;;5.22;71.13;99938.88;4929293;29;19954;-61
2023/02/11 20:33:21;;;;;;;;;;;;;;;5.26;70.97;99936.22;4935123;29;20402;-59
2023/02/11 20:35:52;;;;;;;;;;;;;;;5.28;71.13;99940.50;4941719;29;19941;-61
2023/02/11 20:38:17;;;;;;;;;;;;;;;5.32;71.23;99939.56;4933429;29;19925;-61
2023/02/11 20:40:43;;;;;;;;;;;;;;;5.36;71.09;99933.41;4933273;29;19918;-62
2023/02/11 20:43:08;;;;;;;;;;;;;;;5.37;70.64;99940.34;4931865;29;19990;-61
2023/02/11 20:45:33;;;;;;;;;;;;;;;5.41;70.40;99934.19;4929299;29;19931;-62
2023/02/11 20:47:59;;;;;;;;;;;;;;;5.38;70.21;99943.81;4932125;29;19934;-61
2023/02/11 20:50:24;;;;;;;;;;;;;;;5.40;70.84;99942.88;4928012;29;19918;-62
2023/02/11 20:52:49;;;;;;;;;;;;;;;5.36;70.65;99946.41;4937277;29;19934;-61
2023/02/11 20:55:14;;;;;;;;;;;;;;;5.59;74.56;99947.72;4934670;29;19919;-62
2023/02/11 20:57:40;;;;;;;;;;;;;;;5.96;76.82;99944.38;4930322;29;19919;-62
2023/02/11 21:00:05;;;;;;;;;;;;;;;6.38;76.50;99951.19;4932732;29;20264;-61
2023/02/11 21:02:30;;;;;;;;;;;;;;;6.70;71.97;99965.19;4930781;29;20346;-62
2023/02/11 21:04:56;;;;;;;;;;;;;;;6.99;71.46;99958.41;4926290;29;19922;-62
2023/02/11 21:07:21;;;;;;;;;;;;;;;7.23;72.41;99949.06;4933126;29;19918;-62
2023/02/11 21:09:46;;;;;;;;;;;;;;;7.34;70.04;99947.84;4932737;29;19918;-61
2023/02/11 21:12:12;;;;;;;;;;;;;;;7.37;68.05;99952.13;4935689;29;19970;-61
2023/02/11 21:14:37;;;;;;;;;;;;;;;7.38;67.52;99959.91;4929749;29;19926;-61
2023/02/11 21:17:02;;;;;;;;;;;;;;;7.37;67.30;99966.03;4933210;29;20276;-62
2023/02/11 21:19:27;;;;;;;;;;;;;;;7.50;69.53;99976.13;4934748;29;19918;-62
2023/02/11 21:21:54;;;;;;;;;;;;;;;7.60;69.54;99988.03;4935665;29;19942;-62
2023/02/11 21:24:19;;;;;;;;;;;;;;;7.71;68.51;99975.53;4932045;29;19926;-61
2023/02/11 21:26:44;;;;;;;;;;;;;;;7.77;68.29;99975.34;4932270;29;19922;-62
2023/02/11 21:29:10;;;;;;;;;;;;;;;7.76;66.70;99965.81;4929966;29;20022;-62
2023/02/11 21:31:35;;;;;;;;;;;;;;;7.76;66.76;99964.97;4938682;29;19922;-62
2023/02/11 21:34:01;;;;;;;;;;;;;;;7.71;65.61;99964.22;4930467;29;19925;-61
2023/02/11 21:36:26;;;;;;;;;;;;;;;7.82;67.78;99967.41;4924886;29;20333;-62
2023/02/11 21:38:51;;;;;;;;;;;;;;;7.91;67.94;99966.25;4934610;29;19919;-62
2023/02/11 21:41:17;;;;;;;;;;;;;;;7.97;67.67;99971.31;4930769;29;19982;-62
2023/02/11 21:43:42;;;;;;;;;;;;;;;8.02;67.25;99974.66;4928535;29;20290;-62
2023/02/11 21:46:08;;;;;;;;;;;;;;;8.05;67.27;99979.75;4932840;29;19930;-62
2023/02/11 21:48:33;;;;;;;;;;;;;;;8.11;67.31;99984.81;4930833;29;19989;-62
2023/02/11 21:51:02;;;;;;;;;;;;;;;8.14;66.47;99979.50;4933632;29;19934;-62